SWR49K EKCH-LSZH
Flight info
| Callsign | SWR49K |
|---|---|
| Flight time | N/A |
| Altitude | 36000 |
| Route | NEXEN T503 GIMRU DCT MICOS DCT TOLGI DCT SWALM DCT OMOGI/N0430F370 T721 RILAX |
| Aircraft | A320/M-SDE3FGHIRWY/LB1 |
Departure
| Time | 2026-04-30 17:59 |
|---|---|
| Airport | Copenhagen Kastrup Airport (EKCH) |
Arrival
| Time | N/A |
|---|---|
| Airport | Zürich Airport (LSZH) |
| Time | Latitude | Longitude | Altitude | Speed | Heading |
|---|---|---|---|---|---|
| 2026-04-30 17:39 | 55.62718 | 12.64094 | 22 ft | 0 kts | 33° |
| 2026-04-30 17:46 | 55.62681 | 12.64046 | 22 ft | 4 kts | 50° |
| 2026-04-30 17:47 | 55.62672 | 12.63999 | 22 ft | 0 kts | 123° |
| 2026-04-30 17:50 | 55.62627 | 12.64129 | 21 ft | 16 kts | 124° |
| 2026-04-30 17:51 | 55.62468 | 12.64351 | 21 ft | 9 kts | 121° |
| 2026-04-30 17:52 | 55.62258 | 12.64393 | 19 ft | 5 kts | 194° |
| 2026-04-30 17:53 | 55.61885 | 12.64511 | 20 ft | 17 kts | 167° |
| 2026-04-30 17:54 | 55.61479 | 12.64342 | 24 ft | 18 kts | 213° |
| 2026-04-30 17:55 | 55.60879 | 12.63650 | 21 ft | 22 kts | 213° |
| 2026-04-30 17:56 | 55.60687 | 12.63865 | 22 ft | 5 kts | 78° |
| 2026-04-30 17:57 | 55.60717 | 12.63937 | 22 ft | 0 kts | 43° |
| 2026-04-30 17:58 | 55.60744 | 12.63981 | 22 ft | 23 kts | 43° |
| 2026-04-30 17:59 | 55.63376 | 12.68015 | 1182 ft | 160 kts | 37° |
| 2026-04-30 18:00 | 55.67217 | 12.75647 | 2551 ft | 270 kts | 85° |
| 2026-04-30 18:00 | 55.63513 | 12.81770 | 5586 ft | 279 kts | 184° |
| 2026-04-30 18:01 | 55.60069 | 12.78349 | 7040 ft | 295 kts | 224° |
| 2026-04-30 18:02 | 55.55787 | 12.70368 | 9506 ft | 303 kts | 224° |
| 2026-04-30 18:02 | 55.50835 | 12.62715 | 11006 ft | 343 kts | 219° |
| 2026-04-30 18:03 | 55.45094 | 12.54369 | 12750 ft | 365 kts | 219° |
| 2026-04-30 18:04 | 55.39098 | 12.45635 | 14644 ft | 380 kts | 219° |
| 2026-04-30 18:05 | 55.30817 | 12.33559 | 17042 ft | 393 kts | 220° |
| 2026-04-30 18:06 | 55.22250 | 12.21141 | 19305 ft | 406 kts | 220° |
| 2026-04-30 18:07 | 55.13435 | 12.08479 | 21430 ft | 415 kts | 220° |
| 2026-04-30 18:08 | 55.06678 | 11.98789 | 22962 ft | 423 kts | 220° |
| 2026-04-30 18:09 | 54.97446 | 11.85631 | 24758 ft | 433 kts | 220° |
| 2026-04-30 18:10 | 54.88012 | 11.72288 | 26298 ft | 441 kts | 221° |
| 2026-04-30 18:11 | 54.78356 | 11.58893 | 27755 ft | 448 kts | 218° |
| 2026-04-30 18:11 | 54.70690 | 11.49448 | 28768 ft | 454 kts | 217° |
| 2026-04-30 18:12 | 54.62904 | 11.39925 | 29708 ft | 459 kts | 217° |
| 2026-04-30 18:13 | 54.57696 | 11.33467 | 30312 ft | 462 kts | 218° |
| 2026-04-30 18:13 | 54.50710 | 11.24877 | 30996 ft | 465 kts | 217° |
| 2026-04-30 18:14 | 54.44481 | 11.17392 | 31515 ft | 469 kts | 211° |
| 2026-04-30 18:15 | 54.35320 | 11.11526 | 32432 ft | 468 kts | 199° |
| 2026-04-30 18:15 | 54.26086 | 11.06260 | 33381 ft | 465 kts | 199° |
| 2026-04-30 18:16 | 54.19959 | 11.02783 | 33968 ft | 463 kts | 199° |
| 2026-04-30 18:16 | 54.13853 | 10.99308 | 34556 ft | 462 kts | 199° |
| 2026-04-30 18:17 | 54.10808 | 10.97569 | 34818 ft | 461 kts | 199° |
| 2026-04-30 18:17 | 54.07774 | 10.95842 | 35068 ft | 460 kts | 199° |
| 2026-04-30 18:17 | 54.01744 | 10.92436 | 35542 ft | 459 kts | 199° |
| 2026-04-30 18:18 | 53.98719 | 10.90738 | 35755 ft | 458 kts | 198° |
| 2026-04-30 18:18 | 53.95651 | 10.89023 | 35965 ft | 458 kts | 198° |
| 2026-04-30 18:18 | 53.92664 | 10.87352 | 36166 ft | 458 kts | 198° |
| 2026-04-30 18:18 | 53.89642 | 10.85663 | 36370 ft | 457 kts | 198° |
| 2026-04-30 18:19 | 53.86625 | 10.83974 | 36456 ft | 455 kts | 198° |
| 2026-04-30 18:19 | 53.80635 | 10.80618 | 36463 ft | 453 kts | 198° |
| 2026-04-30 18:20 | 53.74656 | 10.77277 | 36464 ft | 453 kts | 198° |
| 2026-04-30 18:20 | 53.68665 | 10.73943 | 36461 ft | 454 kts | 198° |
| 2026-04-30 18:21 | 53.62663 | 10.70635 | 36455 ft | 453 kts | 198° |
| 2026-04-30 18:21 | 53.56670 | 10.67337 | 36448 ft | 453 kts | 198° |
| 2026-04-30 18:22 | 53.50680 | 10.64028 | 36441 ft | 453 kts | 198° |
| 2026-04-30 18:22 | 53.41677 | 10.59080 | 36436 ft | 454 kts | 198° |
| 2026-04-30 18:23 | 53.35665 | 10.55809 | 36437 ft | 454 kts | 198° |
| 2026-04-30 18:23 | 53.29656 | 10.52539 | 36439 ft | 454 kts | 198° |
| 2026-04-30 18:24 | 53.21659 | 10.48198 | 36431 ft | 454 kts | 198° |
| 2026-04-30 18:25 | 53.15645 | 10.44926 | 36428 ft | 454 kts | 198° |
| 2026-04-30 18:25 | 53.06624 | 10.40063 | 36428 ft | 455 kts | 198° |
| 2026-04-30 18:26 | 52.97589 | 10.35235 | 36428 ft | 455 kts | 197° |
| 2026-04-30 18:27 | 52.88558 | 10.30421 | 36429 ft | 454 kts | 197° |
| 2026-04-30 18:28 | 52.79529 | 10.25618 | 36429 ft | 455 kts | 197° |
| 2026-04-30 18:28 | 52.70493 | 10.20819 | 36430 ft | 455 kts | 197° |
| 2026-04-30 18:29 | 52.58444 | 10.14464 | 36431 ft | 455 kts | 197° |
| 2026-04-30 18:30 | 52.46393 | 10.08167 | 36425 ft | 455 kts | 197° |
| 2026-04-30 18:31 | 52.37347 | 10.03449 | 36428 ft | 455 kts | 197° |
| 2026-04-30 18:32 | 52.28293 | 9.98756 | 36425 ft | 455 kts | 197° |
| 2026-04-30 18:33 | 52.19227 | 9.94069 | 36424 ft | 456 kts | 197° |
| 2026-04-30 18:33 | 52.10137 | 9.89398 | 36432 ft | 457 kts | 197° |
| 2026-04-30 18:34 | 52.01037 | 9.84731 | 36430 ft | 458 kts | 196° |
| 2026-04-30 18:35 | 51.94963 | 9.81624 | 36431 ft | 458 kts | 196° |
| 2026-04-30 18:35 | 51.88888 | 9.78533 | 36437 ft | 458 kts | 196° |
| 2026-04-30 18:36 | 51.79769 | 9.73914 | 36430 ft | 458 kts | 196° |
| 2026-04-30 18:37 | 51.70666 | 9.69313 | 36442 ft | 456 kts | 196° |
| 2026-04-30 18:37 | 51.64610 | 9.66259 | 36439 ft | 456 kts | 196° |
| 2026-04-30 18:38 | 51.58553 | 9.63217 | 36433 ft | 456 kts | 196° |